Time;durP1;ratioP1;P1;durP2;ratioP2;P2;SDS_P1;SDS_P2;PMS_P1;PMS_P2;Temp;Humidity;BMP_temperature;BMP_pressure;BME280_temperature;BME280_humidity;BME280_pressure;Samples;Min_cycle;Max_cycle;Signal;HPM_P1;HPM_P2
2021/03/20 00:01:14;;;;;;;12.40;8.80;;;8.30;48.00;;;;;;4997791;28;20034;-67
2021/03/20 00:03:40;;;;;;;12.33;9.17;;;8.30;48.20;;;;;;5003798;28;20087;-67
2021/03/20 00:06:07;;;;;;;10.33;8.70;;;8.30;48.10;;;;;;5004970;28;20045;-67
2021/03/20 00:08:33;;;;;;;11.70;9.47;;;8.30;47.90;;;;;;5002002;28;20042;-67
2021/03/20 00:10:59;;;;;;;12.57;9.27;;;8.40;48.00;;;;;;4999341;28;20060;-67
2021/03/20 00:13:25;;;;;;;12.20;9.47;;;8.40;47.50;;;;;;5009807;28;20484;-68
2021/03/20 00:15:53;;;;;;;10.17;8.93;;;8.40;47.70;;;;;;5000456;28;20080;-67
2021/03/20 00:18:21;;;;;;;14.70;9.60;;;8.40;47.70;;;;;;5004578;28;20125;-67
2021/03/20 00:20:47;;;;;;;9.67;8.63;;;8.30;47.60;;;;;;5001869;28;20165;-67
2021/03/20 00:23:12;;;;;;;11.57;9.20;;;8.30;47.60;;;;;;5004487;28;20175;-68
2021/03/20 00:25:38;;;;;;;12.27;9.37;;;8.40;47.50;;;;;;5001340;28;20982;-67
2021/03/20 00:28:06;;;;;;;9.90;8.43;;;8.30;47.50;;;;;;5006309;28;20479;-67
2021/03/20 00:30:32;;;;;;;11.07;9.67;;;8.40;47.90;;;;;;4997603;28;20056;-67
2021/03/20 00:32:58;;;;;;;10.73;8.57;;;8.30;47.80;;;;;;4991646;28;20132;-67
2021/03/20 00:35:24;;;;;;;12.13;9.80;;;8.30;47.60;;;;;;5001780;28;20042;-68
2021/03/20 00:37:52;;;;;;;10.63;8.93;;;8.20;47.90;;;;;;5016811;28;20042;-67
2021/03/20 00:40:22;;;;;;;13.47;10.23;;;8.10;48.30;;;;;;5003110;28;20400;-67
2021/03/20 00:42:48;;;;;;;11.00;9.30;;;8.10;48.70;;;;;;5003948;28;20099;-67
2021/03/20 00:45:15;;;;;;;11.50;9.57;;;8.10;48.50;;;;;;5005913;28;20038;-68
2021/03/20 00:47:41;;;;;;;11.73;9.13;;;8.20;48.10;;;;;;5008210;28;20038;-68
2021/03/20 00:50:08;;;;;;;12.80;10.23;;;8.20;49.20;;;;;;5008995;28;20038;-68
2021/03/20 00:52:34;;;;;;;13.17;10.33;;;8.20;48.30;;;;;;5003317;28;20112;-68
2021/03/20 00:55:00;;;;;;;12.40;10.13;;;8.10;48.70;;;;;;5012665;28;20054;-67
2021/03/20 00:57:26;;;;;;;14.40;10.63;;;8.10;48.70;;;;;;5005853;28;20033;-67
2021/03/20 00:59:51;;;;;;;13.43;9.40;;;8.10;49.10;;;;;;5010429;28;20046;-68
2021/03/20 01:02:17;;;;;;;14.37;9.50;;;8.10;48.60;;;;;;5004606;28;20395;-68
2021/03/20 01:04:43;;;;;;;15.67;10.57;;;8.10;48.40;;;;;;5008716;28;20037;-67
2021/03/20 01:07:09;;;;;;;16.23;10.47;;;8.10;48.90;;;;;;5005270;28;20041;-67
2021/03/20 01:09:35;;;;;;;13.43;10.73;;;8.00;48.80;;;;;;5007792;28;20041;-68
2021/03/20 01:12:00;;;;;;;14.83;11.83;;;8.00;49.10;;;;;;4996593;28;20033;-66
2021/03/20 01:14:26;;;;;;;12.73;10.67;;;8.00;49.00;;;;;;5005735;28;20063;-67
2021/03/20 01:16:52;;;;;;;14.20;11.30;;;8.00;49.20;;;;;;5002159;28;20042;-67
2021/03/20 01:19:17;;;;;;;14.30;11.43;;;8.00;49.20;;;;;;5000020;28;20042;-67
2021/03/20 01:21:43;;;;;;;15.00;11.47;;;7.90;49.60;;;;;;5005067;28;20050;-68
2021/03/20 01:24:09;;;;;;;14.77;11.37;;;7.80;49.40;;;;;;4999741;28;20458;-67
2021/03/20 01:26:35;;;;;;;18.37;12.30;;;7.90;49.40;;;;;;5000494;28;20080;-67
2021/03/20 01:29:00;;;;;;;20.40;12.73;;;7.80;49.60;;;;;;5002274;28;20117;-67
2021/03/20 01:31:26;;;;;;;16.20;12.57;;;7.70;49.30;;;;;;4998051;28;20502;-67
2021/03/20 01:33:52;;;;;;;18.73;13.20;;;7.80;49.50;;;;;;5005663;28;20088;-68
2021/03/20 01:36:18;;;;;;;17.10;13.13;;;7.80;49.50;;;;;;5002600;28;20053;-68
2021/03/20 01:38:44;;;;;;;17.07;13.83;;;7.80;49.40;;;;;;5001440;28;20061;-67
2021/03/20 01:41:14;;;;;;;15.70;12.63;;;7.80;49.20;;;;;;5005103;28;20046;-67
2021/03/20 01:43:39;;;;;;;19.17;13.30;;;7.70;49.50;;;;;;4993880;28;20045;-67
2021/03/20 01:46:42;;;;;;;18.27;14.17;;;7.70;49.40;;;;;;5001323;28;20053;-68
2021/03/20 01:49:41;;;;;;;20.83;15.00;;;7.60;49.80;;;;;;4976310;28;20033;-67
2021/03/20 01:52:12;;;;;;;17.17;12.80;;;7.60;50.30;;;;;;4963722;28;20050;-67
2021/03/20 01:54:52;;;;;;;19.03;13.97;;;7.50;50.00;;;;;;4999933;28;20050;-67
2021/03/20 01:57:28;;;;;;;19.67;14.20;;;7.60;50.00;;;;;;5010739;28;20069;-67
2021/03/20 01:59:55;;;;;;;19.23;13.60;;;7.50;49.50;;;;;;4995991;28;20129;-68
2021/03/20 02:02:21;;;;;;;16.13;13.03;;;7.60;49.70;;;;;;5000309;28;20493;-68
2021/03/20 02:04:47;;;;;;;16.77;13.67;;;7.60;49.50;;;;;;4995554;28;21136;-67
2021/03/20 02:07:12;;;;;;;16.80;12.87;;;7.60;49.80;;;;;;5006176;28;20057;-67
2021/03/20 02:09:39;;;;;;;16.77;13.07;;;7.60;49.90;;;;;;4999213;28;20053;-67
2021/03/20 02:12:12;;;;;;;16.63;13.50;;;7.50;49.80;;;;;;5007688;28;20554;-67
2021/03/20 02:15:01;;;;;;;18.00;13.83;;;7.50;49.30;;;;;;5002215;28;20062;-67
2021/03/20 02:17:41;;;;;;;19.73;14.17;;;7.50;49.90;;;;;;5007366;28;20042;-67
2021/03/20 02:20:29;;;;;;;17.30;13.03;;;7.50;49.90;;;;;;4977841;28;20030;-66
2021/03/20 02:23:07;;;;;;;14.87;12.37;;;7.40;49.90;;;;;;5003867;28;20041;-67
2021/03/20 02:25:54;;;;;;;14.57;12.13;;;7.40;49.80;;;;;;4961758;28;20049;-66
2021/03/20 02:28:41;;;;;;;15.37;12.60;;;7.40;49.30;;;;;;5006391;28;20365;-67
2021/03/20 02:31:18;;;;;;;15.77;12.77;;;7.50;49.70;;;;;;4972149;28;20125;-66
2021/03/20 02:34:22;;;;;;;15.47;12.10;;;7.40;49.60;;;;;;5001532;28;20092;-67
2021/03/20 02:37:27;;;;;;;13.27;11.50;;;7.50;49.50;;;;;;4956195;28;20145;-66
2021/03/20 02:40:06;;;;;;;13.50;11.48;;;7.40;49.10;;;;;;4975125;28;20763;-68
2021/03/20 02:42:50;;;;;;;12.90;10.83;;;7.30;49.50;;;;;;4976449;28;20038;-66
2021/03/20 02:45:33;;;;;;;14.37;11.57;;;7.30;48.80;;;;;;4999881;28;20033;-66
2021/03/20 02:48:20;;;;;;;15.37;11.40;;;7.20;49.50;;;;;;5002727;28;20598;-65
2021/03/20 02:51:07;;;;;;;12.27;10.40;;;7.30;49.80;;;;;;5004098;28;20042;-66
2021/03/20 02:53:40;;;;;;;13.13;10.93;;;7.30;49.20;;;;;;4975781;28;20050;-66
2021/03/20 02:56:10;;;;;;;13.63;10.90;;;7.20;49.60;;;;;;4998366;28;20101;-67
2021/03/20 02:59:07;;;;;;;13.37;10.30;;;7.20;49.10;;;;;;5004519;28;20056;-67
2021/03/20 03:01:35;;;;;;;12.53;10.40;;;7.20;49.10;;;;;;4982578;28;20044;-66
2021/03/20 03:04:03;;;;;;;11.93;9.80;;;7.20;49.30;;;;;;4998392;28;20030;-66
2021/03/20 03:06:34;;;;;;;14.10;10.83;;;7.20;49.30;;;;;;5004868;28;20061;-66
2021/03/20 03:09:15;;;;;;;14.27;10.50;;;7.20;49.30;;;;;;5002696;28;20034;-66
2021/03/20 03:11:49;;;;;;;13.50;10.87;;;7.20;49.20;;;;;;4996367;28;20034;-67
2021/03/20 03:14:25;;;;;;;13.77;10.95;;;7.10;48.70;;;;;;5004145;28;20129;-67
2021/03/20 03:16:57;;;;;;;13.40;10.97;;;7.20;48.90;;;;;;4999960;28;20117;-67
2021/03/20 03:19:46;;;;;;;12.53;9.60;;;7.20;49.30;;;;;;5003773;28;20037;-67
2021/03/20 03:22:35;;;;;;;13.93;10.03;;;7.20;48.90;;;;;;4967349;28;20086;-67
2021/03/20 03:25:06;;;;;;;13.60;10.17;;;7.20;49.20;;;;;;4999416;28;20034;-67
2021/03/20 03:27:36;;;;;;;13.17;9.87;;;7.20;49.00;;;;;;5002105;28;20034;-67
2021/03/20 03:30:11;;;;;;;14.60;10.97;;;7.10;49.20;;;;;;5002939;28;20034;-67
2021/03/20 03:32:43;;;;;;;14.73;12.10;;;7.10;49.20;;;;;;4992952;28;20157;-66
2021/03/20 03:35:31;;;;;;;13.10;10.67;;;7.10;49.30;;;;;;5003313;28;20135;-66
2021/03/20 03:38:05;;;;;;;13.47;11.53;;;7.10;49.40;;;;;;4999353;28;20202;-66
2021/03/20 03:40:59;;;;;;;13.07;10.57;;;7.10;49.60;;;;;;5003295;28;20072;-65
2021/03/20 03:43:24;;;;;;;13.47;10.80;;;7.10;50.20;;;;;;4999868;28;20117;-66
2021/03/20 03:45:50;;;;;;;13.47;10.83;;;7.00;49.80;;;;;;4997104;28;20125;-66
2021/03/20 03:48:19;;;;;;;12.87;10.43;;;6.90;49.60;;;;;;4996989;28;20065;-67
2021/03/20 03:50:46;;;;;;;15.90;11.23;;;7.00;49.60;;;;;;4994126;28;20495;-67
2021/03/20 03:53:27;;;;;;;12.67;11.30;;;7.00;49.70;;;;;;5002480;28;20041;-67
2021/03/20 03:55:58;;;;;;;13.57;11.00;;;7.10;50.00;;;;;;5008146;28;20108;-67
2021/03/20 03:58:54;;;;;;;12.87;11.27;;;7.00;49.80;;;;;;5000032;28;20041;-67
2021/03/20 04:01:26;;;;;;;13.07;11.27;;;7.00;50.30;;;;;;4943129;28;20046;-67
2021/03/20 04:04:00;;;;;;;12.83;10.97;;;6.90;49.80;;;;;;5000560;28;20041;-67
2021/03/20 04:06:49;;;;;;;11.48;10.23;;;7.00;49.90;;;;;;5005686;28;20041;-67
2021/03/20 04:09:30;;;;;;;12.73;11.10;;;7.00;50.60;;;;;;4960827;28;20042;-67
2021/03/20 04:12:17;;;;;;;16.17;11.13;;;6.90;50.00;;;;;;5007717;28;20068;-67
2021/03/20 04:15:07;;;;;;;13.83;11.27;;;6.90;49.60;;;;;;4981311;28;20484;-67
2021/03/20 04:17:43;;;;;;;12.90;10.83;;;6.90;49.90;;;;;;4987879;28;20546;-67
2021/03/20 04:20:19;;;;;;;11.73;9.80;;;6.90;49.60;;;;;;5000170;28;20049;-67
2021/03/20 04:23:05;;;;;;;14.67;11.30;;;6.90;50.20;;;;;;5001427;28;20046;-67
2021/03/20 04:25:54;;;;;;;15.43;10.63;;;6.90;50.20;;;;;;5005135;28;20050;-67
2021/03/20 04:28:41;;;;;;;17.37;11.10;;;7.00;50.00;;;;;;5007974;28;20495;-67
2021/03/20 04:31:39;;;;;;;15.70;11.07;;;7.00;50.30;;;;;;4974156;28;20057;-67
2021/03/20 04:34:23;;;;;;;13.17;9.97;;;7.00;50.00;;;;;;4969898;28;20511;-66
2021/03/20 04:37:03;;;;;;;13.70;11.07;;;7.00;49.50;;;;;;5006913;28;20085;-68
2021/03/20 04:39:33;;;;;;;12.73;10.30;;;7.00;50.10;;;;;;5009516;28;20046;-66
2021/03/20 04:42:00;;;;;;;13.03;10.37;;;6.90;49.80;;;;;;5003161;28;20045;-67
2021/03/20 04:44:26;;;;;;;13.27;10.53;;;7.00;49.50;;;;;;5005613;28;20034;-67
2021/03/20 04:46:52;;;;;;;12.10;9.90;;;7.00;49.70;;;;;;5004045;28;20485;-67
2021/03/20 04:49:47;;;;;;;13.97;10.10;;;6.90;50.10;;;;;;5008532;28;20125;-67
2021/03/20 04:52:29;;;;;;;12.57;10.40;;;7.00;50.00;;;;;;4959103;28;20041;-68
2021/03/20 04:54:56;;;;;;;12.37;10.50;;;7.00;50.60;;;;;;5011473;28;20115;-67
2021/03/20 04:57:31;;;;;;;12.07;10.70;;;6.90;50.30;;;;;;5004428;28;20045;-67
2021/03/20 05:00:06;;;;;;;13.25;10.77;;;7.00;49.90;;;;;;5005003;28;20121;-67
2021/03/20 05:02:53;;;;;;;12.02;10.05;;;6.90;50.00;;;;;;5007740;28;20076;-67
2021/03/20 05:05:50;;;;;;;11.97;9.43;;;6.90;49.70;;;;;;5005872;28;20054;-67
2021/03/20 05:08:31;;;;;;;10.23;8.67;;;6.90;49.30;;;;;;4981541;28;20042;-67
2021/03/20 05:11:09;;;;;;;10.63;9.00;;;6.90;49.10;;;;;;5005690;28;20065;-67
2021/03/20 05:14:02;;;;;;;14.30;10.10;;;6.90;49.80;;;;;;4978708;28;20403;-67
2021/03/20 05:16:43;;;;;;;10.47;9.27;;;6.90;49.30;;;;;;4999860;28;20069;-67
2021/03/20 05:19:08;;;;;;;12.23;9.53;;;6.90;49.60;;;;;;4985332;28;20514;-67
2021/03/20 05:21:38;;;;;;;13.27;9.53;;;6.80;49.60;;;;;;5001572;28;20061;-66
2021/03/20 05:24:05;;;;;;;11.87;9.67;;;6.90;49.50;;;;;;5005563;28;20025;-67
2021/03/20 05:26:33;;;;;;;11.57;9.80;;;6.90;49.30;;;;;;5008070;28;20380;-66
2021/03/20 05:28:59;;;;;;;11.63;9.30;;;6.80;48.80;;;;;;5001435;28;20045;-66
2021/03/20 05:34:52;;;;;;;10.27;9.13;;;6.90;49.20;;;;;;4957280;28;20178;-67
2021/03/20 05:37:30;;;;;;;9.50;8.50;;;6.80;49.80;;;;;;5000649;28;20056;-67
2021/03/20 05:39:56;;;;;;;11.57;9.13;;;6.80;49.30;;;;;;5006918;28;20046;-67
2021/03/20 05:42:56;;;;;;;10.07;8.30;;;6.80;49.60;;;;;;5003747;28;20085;-67
2021/03/20 05:45:27;;;;;;;12.03;8.57;;;6.90;49.50;;;;;;4981956;28;20033;-67
2021/03/20 05:48:02;;;;;;;10.47;8.47;;;6.80;49.30;;;;;;5008186;28;20038;-67
2021/03/20 05:50:41;;;;;;;10.93;9.10;;;6.90;49.00;;;;;;5007746;28;20049;-67
2021/03/20 05:53:25;;;;;;;10.93;9.77;;;6.90;49.70;;;;;;4964414;28;20046;-66
2021/03/20 05:55:59;;;;;;;11.90;9.27;;;6.80;49.50;;;;;;5008907;28;20129;-68
2021/03/20 05:58:25;;;;;;;15.97;10.07;;;6.90;50.30;;;;;;4998679;28;20038;-67
2021/03/20 06:01:11;;;;;;;10.97;8.90;;;6.80;50.30;;;;;;5010988;28;20276;-67
2021/03/20 06:03:58;;;;;;;11.37;9.10;;;6.80;50.30;;;;;;4977367;28;20053;-67
2021/03/20 06:06:44;;;;;;;13.87;9.27;;;6.90;51.50;;;;;;5009034;28;20064;-67
2021/03/20 06:09:22;;;;;;;19.33;9.67;;;6.80;50.00;;;;;;4966380;28;20034;-68
2021/03/20 06:12:06;;;;;;;11.67;8.93;;;6.80;50.20;;;;;;5005813;28;20080;-67
2021/03/20 06:14:48;;;;;;;11.97;9.57;;;6.80;50.00;;;;;;4999875;28;20046;-63
2021/03/20 06:17:30;;;;;;;11.13;9.13;;;6.80;49.60;;;;;;5002911;28;20117;-66
2021/03/20 06:20:09;;;;;;;16.70;9.87;;;6.90;49.80;;;;;;5002483;28;20041;-67
2021/03/20 06:23:07;;;;;;;13.07;8.73;;;6.90;49.60;;;;;;4986992;28;20065;-66
2021/03/20 06:25:39;;;;;;;12.07;9.67;;;6.90;49.60;;;;;;5005570;28;20029;-66
2021/03/20 06:28:06;;;;;;;11.80;9.47;;;6.80;49.70;;;;;;5004949;28;20046;-67
2021/03/20 06:30:46;;;;;;;14.87;9.57;;;6.80;49.70;;;;;;5002033;28;20082;-67
2021/03/20 06:33:28;;;;;;;11.33;9.63;;;6.90;49.90;;;;;;5010741;28;20038;-67
2021/03/20 06:35:58;;;;;;;11.37;8.97;;;6.80;48.90;;;;;;5002878;28;20065;-67
2021/03/20 06:38:43;;;;;;;11.47;9.10;;;6.80;49.50;;;;;;5003550;28;20034;-68
2021/03/20 06:41:19;;;;;;;12.85;9.75;;;6.90;49.90;;;;;;4975324;28;20042;-67
2021/03/20 06:43:59;;;;;;;13.00;10.40;;;6.80;49.80;;;;;;5007287;28;20491;-68
2021/03/20 06:46:31;;;;;;;12.17;9.80;;;6.80;49.50;;;;;;4996610;28;20042;-67
2021/03/20 06:48:57;;;;;;;10.63;9.23;;;6.80;49.50;;;;;;5003344;28;20049;-68
2021/03/20 06:51:23;;;;;;;13.33;9.63;;;6.90;49.10;;;;;;5000723;28;20033;-67
2021/03/20 06:53:59;;;;;;;14.43;10.77;;;6.90;49.30;;;;;;4993148;28;20054;-68
2021/03/20 06:56:29;;;;;;;11.00;9.47;;;6.90;49.40;;;;;;4999501;28;20592;-67
2021/03/20 06:58:54;;;;;;;13.27;10.43;;;6.90;49.50;;;;;;5009394;28;20042;-67
2021/03/20 07:01:28;;;;;;;16.43;10.77;;;7.00;49.20;;;;;;5002943;28;20071;-67
2021/03/20 07:04:20;;;;;;;13.57;10.93;;;7.10;49.10;;;;;;5003609;28;20057;-67
2021/03/20 07:07:36;;;;;;;16.47;12.27;;;7.10;49.10;;;;;;4979288;28;20053;-67
2021/03/20 07:10:13;;;;;;;17.37;13.57;;;7.10;51.20;;;;;;4931654;28;20061;-67
2021/03/20 07:13:07;;;;;;;18.10;13.87;;;6.90;52.30;;;;;;4998031;28;20053;-69
2021/03/20 07:15:33;;;;;;;18.47;14.87;;;6.90;52.90;;;;;;4976456;28;20050;-67
2021/03/20 07:18:43;;;;;;;22.67;15.07;;;7.00;52.30;;;;;;4992805;28;20038;-59
2021/03/20 07:21:32;;;;;;;18.17;15.20;;;7.20;53.00;;;;;;4981133;28;20057;-67
2021/03/20 07:23:58;;;;;;;18.53;15.03;;;7.30;53.10;;;;;;5001554;28;20080;-67
2021/03/20 07:26:24;;;;;;;26.60;16.57;;;7.20;52.40;;;;;;5001892;28;20042;-67
2021/03/20 07:28:53;;;;;;;28.67;15.40;;;7.20;52.60;;;;;;4999845;28;20109;-67
2021/03/20 07:31:20;;;;;;;19.77;15.57;;;7.30;52.70;;;;;;5007786;28;20056;-67
2021/03/20 07:33:48;;;;;;;21.23;14.67;;;7.40;52.30;;;;;;5001597;28;20034;-67
2021/03/20 07:36:35;;;;;;;22.57;15.80;;;7.40;52.20;;;;;;4993209;28;20411;-67
2021/03/20 07:39:07;;;;;;;22.13;16.43;;;7.40;52.60;;;;;;4996478;28;20046;-67
2021/03/20 07:41:54;;;;;;;25.33;16.20;;;7.40;52.90;;;;;;5006975;28;20050;-67
2021/03/20 07:44:25;;;;;;;19.37;15.13;;;7.50;52.90;;;;;;5000652;28;20030;-67
2021/03/20 07:46:52;;;;;;;21.97;16.93;;;7.50;51.80;;;;;;5005538;28;20030;-68
2021/03/20 07:49:29;;;;;;;22.77;16.43;;;7.50;51.90;;;;;;4994719;28;20128;-68
2021/03/20 07:52:04;;;;;;;22.63;16.63;;;7.50;52.20;;;;;;5000102;28;20408;-68
2021/03/20 07:54:36;;;;;;;20.53;15.60;;;7.50;51.80;;;;;;5004810;28;20495;-67
2021/03/20 07:57:11;;;;;;;21.90;16.70;;;7.60;52.90;;;;;;5013092;28;20049;-67
2021/03/20 07:59:48;;;;;;;22.33;16.40;;;7.70;51.80;;;;;;5002157;28;20038;-67
2021/03/20 08:02:31;;;;;;;25.63;15.77;;;7.70;51.90;;;;;;5009829;28;20111;-67
2021/03/20 08:05:27;;;;;;;17.50;15.30;;;7.80;51.30;;;;;;5004632;28;20042;-68
2021/03/20 08:07:54;;;;;;;27.07;16.00;;;7.90;51.00;;;;;;4986100;28;20081;-68
2021/03/20 08:10:32;;;;;;;23.03;16.27;;;7.90;50.90;;;;;;5004395;28;20472;-68
2021/03/20 08:13:13;;;;;;;21.90;16.87;;;7.90;50.70;;;;;;5006972;28;20030;-68
2021/03/20 08:15:56;;;;;;;23.10;17.13;;;8.00;51.20;;;;;;4979359;28;20474;-68
2021/03/20 08:18:30;;;;;;;22.63;16.40;;;8.00;50.90;;;;;;5004129;28;20059;-68
2021/03/20 08:21:24;;;;;;;18.77;13.95;;;8.10;50.50;;;;;;5004733;28;20046;-68
2021/03/20 08:24:15;;;;;;;16.27;13.70;;;8.10;48.30;;;;;;4965079;28;20467;-67
2021/03/20 08:26:51;;;;;;;13.40;12.00;;;8.00;47.00;;;;;;4981976;28;20046;-67
2021/03/20 08:29:44;;;;;;;15.40;12.03;;;8.10;47.80;;;;;;5007637;28;20103;-67
2021/03/20 08:32:52;;;;;;;15.83;13.13;;;8.20;47.40;;;;;;4985111;28;20157;-67
2021/03/20 08:35:23;;;;;;;17.77;13.80;;;8.30;47.50;;;;;;4975645;28;20050;-67
2021/03/20 08:38:07;;;;;;;17.43;13.53;;;8.30;47.60;;;;;;5011272;28;20069;-67
2021/03/20 08:41:02;;;;;;;19.53;13.90;;;8.40;47.80;;;;;;5001246;28;20093;-66
2021/03/20 08:43:46;;;;;;;15.65;12.32;;;8.30;47.60;;;;;;5001501;28;20121;-66
2021/03/20 08:46:36;;;;;;;14.17;11.87;;;8.50;46.80;;;;;;4968188;28;20461;-66
2021/03/20 08:49:29;;;;;;;16.73;12.67;;;8.30;46.80;;;;;;4997103;28;20391;-65
2021/03/20 08:52:39;;;;;;;12.27;10.60;;;8.40;47.40;;;;;;5005031;28;20040;-66
2021/03/20 08:55:08;;;;;;;12.43;9.90;;;8.40;45.40;;;;;;4949609;28;20103;-66
2021/03/20 08:58:01;;;;;;;14.33;11.67;;;8.50;44.70;;;;;;5007979;28;20054;-66
2021/03/20 09:00:48;;;;;;;14.50;11.70;;;8.60;45.10;;;;;;5004964;28;20052;-66
2021/03/20 09:03:17;;;;;;;15.17;11.80;;;8.60;45.80;;;;;;4981892;28;20436;-66
2021/03/20 09:05:52;;;;;;;15.47;12.10;;;8.50;46.20;;;;;;5004735;28;20084;-66
2021/03/20 09:08:28;;;;;;;14.10;12.03;;;8.60;45.90;;;;;;5005128;28;20050;-66
2021/03/20 09:11:07;;;;;;;16.10;13.40;;;8.80;45.70;;;;;;4999518;28;20065;-66
2021/03/20 09:13:44;;;;;;;13.83;12.43;;;8.70;45.80;;;;;;5002196;28;20049;-66
2021/03/20 09:16:25;;;;;;;14.50;12.37;;;8.80;45.50;;;;;;4992815;28;20053;-66
2021/03/20 09:18:51;;;;;;;16.57;13.27;;;8.70;45.20;;;;;;4999390;28;20479;-66
2021/03/20 09:21:17;;;;;;;13.63;11.53;;;8.80;45.10;;;;;;4995906;28;20037;-66
2021/03/20 09:23:46;;;;;;;15.07;11.63;;;9.00;44.60;;;;;;5007423;28;20045;-66
2021/03/20 09:26:39;;;;;;;11.70;10.53;;;9.10;43.90;;;;;;4990400;28;20125;-66
2021/03/20 09:29:35;;;;;;;13.00;11.17;;;9.20;43.40;;;;;;4982676;28;20120;-66
2021/03/20 09:32:12;;;;;;;12.00;10.55;;;9.20;42.50;;;;;;4987252;28;20037;-66
2021/03/20 09:34:47;;;;;;;14.17;12.13;;;9.20;42.70;;;;;;5001008;28;20045;-65
2021/03/20 09:37:16;;;;;;;14.87;11.73;;;9.40;42.50;;;;;;4995132;28;20077;-65
2021/03/20 09:39:50;;;;;;;15.37;10.90;;;9.50;42.60;;;;;;5005681;28;20452;-65
2021/03/20 09:42:25;;;;;;;13.07;11.07;;;9.60;42.50;;;;;;4994266;28;20042;-66
2021/03/20 09:44:58;;;;;;;13.50;11.82;;;9.70;40.90;;;;;;5004935;28;20042;-66
2021/03/20 09:47:50;;;;;;;13.60;10.00;;;9.70;41.40;;;;;;4991857;28;20034;-66
2021/03/20 09:50:36;;;;;;;16.43;11.13;;;9.80;40.30;;;;;;4985069;28;20140;-65
2021/03/20 09:53:07;;;;;;;12.37;10.00;;;9.80;40.40;;;;;;4996437;28;20061;-65
2021/03/20 09:55:45;;;;;;;12.30;10.57;;;9.90;40.10;;;;;;5010120;28;20049;-65
2021/03/20 09:58:20;;;;;;;13.33;11.13;;;9.90;40.00;;;;;;5002242;28;20050;-65
2021/03/20 10:01:04;;;;;;;11.43;9.98;;;10.00;39.80;;;;;;5008219;28;20038;-65
2021/03/20 10:03:41;;;;;;;10.87;9.63;;;10.20;37.90;;;;;;5003601;28;20042;-62
2021/03/20 10:06:12;;;;;;;9.77;8.77;;;10.20;37.90;;;;;;5009537;28;20129;-64
2021/03/20 10:08:44;;;;;;;12.70;9.43;;;10.20;37.20;;;;;;5004378;28;20448;-65
2021/03/20 10:11:38;;;;;;;10.93;9.33;;;10.30;38.40;;;;;;5007385;28;20053;-65
2021/03/20 10:14:27;;;;;;;12.27;10.57;;;10.30;37.50;;;;;;4998083;28;20089;-64
2021/03/20 10:17:13;;;;;;;11.53;9.77;;;10.40;38.20;;;;;;5018282;28;20050;-65
2021/03/20 10:19:48;;;;;;;11.07;9.57;;;10.50;38.00;;;;;;4977568;28;20075;-64
2021/03/20 10:22:24;;;;;;;11.13;10.03;;;10.50;37.90;;;;;;5004554;28;20058;-64
2021/03/20 10:24:52;;;;;;;10.97;9.17;;;10.60;39.80;;;;;;5003635;28;20038;-64
2021/03/20 10:27:36;;;;;;;10.73;8.60;;;10.60;37.10;;;;;;5003517;28;20038;-64
2021/03/20 10:30:11;;;;;;;11.57;8.70;;;10.80;37.10;;;;;;4999069;28;20045;-64
2021/03/20 10:32:36;;;;;;;11.88;8.93;;;10.80;41.80;;;;;;5004325;28;20054;-64
2021/03/20 10:35:06;;;;;;;12.73;9.03;;;10.80;36.50;;;;;;4997952;28;20460;-64
2021/03/20 10:37:35;;;;;;;8.93;7.23;;;11.00;35.50;;;;;;5008166;28;20084;-64
2021/03/20 10:40:11;;;;;;;10.43;7.70;;;11.10;34.80;;;;;;5005095;28;20026;-64
2021/03/20 10:42:39;;;;;;;9.90;8.00;;;11.10;44.20;;;;;;5005771;28;20065;-64
2021/03/20 10:45:16;;;;;;;9.80;8.50;;;11.30;50.30;;;;;;4995847;28;20120;-64
2021/03/20 10:47:43;;;;;;;8.80;7.83;;;11.20;33.80;;;;;;5003175;28;20026;-64
2021/03/20 10:50:14;;;;;;;10.97;9.30;;;11.00;34.00;;;;;;4997201;28;20037;-65
2021/03/20 10:52:42;;;;;;;10.87;8.60;;;11.10;33.60;;;;;;5004278;28;20027;-65
2021/03/20 10:55:22;;;;;;;9.40;8.37;;;11.30;33.90;;;;;;4998632;28;20065;-65
2021/03/20 10:57:49;;;;;;;9.07;8.07;;;11.40;32.70;;;;;;5001460;28;20042;-65
2021/03/20 11:00:46;;;;;;;8.77;7.10;;;11.60;33.80;;;;;;4999914;28;20042;-65
2021/03/20 11:03:14;;;;;;;8.60;7.33;;;11.60;31.30;;;;;;4974692;28;20038;-65
2021/03/20 11:05:41;;;;;;;9.90;7.40;;;11.60;31.80;;;;;;5003470;28;20519;-64
2021/03/20 11:08:19;;;;;;;9.57;7.97;;;11.70;32.20;;;;;;5005111;28;20042;-64
2021/03/20 11:10:48;;;;;;;9.20;7.90;;;11.70;30.90;;;;;;5001754;28;20563;-64
2021/03/20 11:13:16;;;;;;;9.50;7.73;;;11.70;32.00;;;;;;5001457;28;20030;-67
2021/03/20 11:15:45;;;;;;;8.77;7.40;;;11.70;31.30;;;;;;4999808;28;20049;-65
2021/03/20 11:18:19;;;;;;;8.03;7.23;;;11.70;30.80;;;;;;5009829;28;20033;-64
2021/03/20 11:20:47;;;;;;;9.55;7.00;;;12.00;30.90;;;;;;5001008;28;20046;-65
2021/03/20 11:23:35;;;;;;;7.70;6.90;;;12.00;31.30;;;;;;5014275;28;20167;-64
2021/03/20 11:26:35;;;;;;;9.67;7.53;;;12.00;29.50;;;;;;5005703;28;20033;-64
2021/03/20 11:29:03;;;;;;;7.83;6.90;;;12.10;29.60;;;;;;4985207;28;20116;-64
2021/03/20 11:31:43;;;;;;;9.00;6.77;;;12.40;29.80;;;;;;5005356;28;20495;-64
2021/03/20 11:34:13;;;;;;;8.32;6.93;;;12.30;29.10;;;;;;4985076;28;20491;-64
2021/03/20 11:36:40;;;;;;;7.43;6.73;;;12.40;28.40;;;;;;5002584;28;20046;-64
2021/03/20 11:39:07;;;;;;;7.75;7.03;;;12.30;29.10;;;;;;5003640;28;20392;-64
2021/03/20 11:41:36;;;;;;;7.55;6.60;;;12.30;29.10;;;;;;5007006;28;20034;-64
2021/03/20 11:44:14;;;;;;;8.68;6.30;;;12.50;31.20;;;;;;5007336;28;20498;-64
2021/03/20 11:46:50;;;;;;;7.72;6.57;;;12.70;27.60;;;;;;5001501;28;20699;-65
2021/03/20 11:49:50;;;;;;;7.47;6.60;;;12.70;26.90;;;;;;5002059;28;20041;-65
2021/03/20 11:52:19;;;;;;;7.95;6.93;;;12.60;27.20;;;;;;4964692;28;20034;-66
2021/03/20 11:54:46;;;;;;;7.03;6.33;;;12.70;28.30;;;;;;5007042;28;20041;-66
2021/03/20 11:57:21;;;;;;;7.68;6.18;;;13.10;27.90;;;;;;4996992;28;20046;-66
2021/03/20 11:59:47;;;;;;;;;;;13.10;26.50;;;;;;5007659;28;20046;-67
2021/03/20 12:02:37;;;;;;;8.27;6.00;;;13.20;26.40;;;;;;5001291;28;19909;-67
2021/03/20 12:05:13;;;;;;;6.68;6.07;;;13.40;25.80;;;;;;5009025;28;20128;-66
2021/03/20 12:07:39;;;;;;;8.27;6.10;;;13.20;26.50;;;;;;5004586;28;20499;-67
2021/03/20 12:10:31;;;;;;;6.90;6.20;;;11.80;54.00;;;;;;5005446;28;20126;-66
2021/03/20 12:12:57;;;;;;;7.38;5.45;;;13.40;25.00;;;;;;5003982;28;20410;-67
2021/03/20 12:15:34;;;;;;;5.78;4.72;;;13.70;25.00;;;;;;5005407;28;20057;-67
2021/03/20 12:18:20;;;;;;;5.95;5.32;;;13.80;26.30;;;;;;5001523;28;20107;-63
2021/03/20 12:20:46;;;;;;;7.15;6.47;;;14.10;24.70;;;;;;5007284;28;20041;-67
2021/03/20 12:23:32;;;;;;;7.00;6.32;;;14.20;25.40;;;;;;5004047;28;20035;-69
2021/03/20 12:26:00;;;;;;;6.55;5.80;;;15.10;22.30;;;;;;5002546;28;20414;-66
2021/03/20 12:28:32;;;;;;;6.75;5.45;;;19.60;20.40;;;;;;5001689;28;20399;-67
2021/03/20 12:31:20;;;;;;;32.55;7.38;;;22.00;17.90;;;;;;4997913;28;20446;-67
2021/03/20 12:33:51;;;;;;;7.75;5.85;;;23.80;15.90;;;;;;4977172;28;20030;-69
2021/03/20 12:36:32;;;;;;;10.77;5.97;;;25.00;15.00;;;;;;5007790;28;20042;-66
2021/03/20 12:38:58;;;;;;;5.35;4.82;;;24.90;14.50;;;;;;5002820;28;20035;-66
2021/03/20 12:41:27;;;;;;;5.75;5.22;;;24.30;14.90;;;;;;5003563;28;20042;-65
2021/03/20 12:44:09;;;;;;;5.80;5.05;;;24.60;14.70;;;;;;5000435;28;20523;-65
2021/03/20 12:46:37;;;;;;;5.72;5.07;;;25.60;20.60;;;;;;4995870;28;20096;-65
2021/03/20 12:49:03;;;;;;;5.90;5.30;;;25.20;20.20;;;;;;5002451;28;20168;-64
2021/03/20 12:51:30;;;;;;;6.95;6.10;;;25.70;24.40;;;;;;4999743;28;20164;-65
2021/03/20 12:53:55;;;;;;;5.15;4.75;;;26.60;13.70;;;;;;4996961;28;20074;-65
2021/03/20 12:56:21;;;;;;;9.45;6.68;;;26.60;13.20;;;;;;5006156;28;20140;-64
2021/03/20 12:58:47;;;;;;;5.25;4.75;;;27.10;12.20;;;;;;4995302;28;20383;-65
2021/03/20 13:01:13;;;;;;;5.13;4.72;;;27.10;11.40;;;;;;4992000;28;20030;-64
2021/03/20 13:03:39;;;;;;;5.50;5.00;;;28.70;14.80;;;;;;4990932;28;20609;-70
2021/03/20 13:06:05;;;;;;;6.20;4.43;;;29.00;10.20;;;;;;5001868;28;20046;-67
2021/03/20 13:08:37;;;;;;;4.93;4.43;;;30.70;10.80;;;;;;5008693;28;20124;-65
2021/03/20 13:11:25;;;;;;;5.13;4.63;;;30.60;9.90;;;;;;4990835;28;20042;-66
2021/03/20 13:13:52;;;;;;;5.53;4.63;;;32.90;10.00;;;;;;4951964;28;20474;-68
2021/03/20 13:16:19;;;;;;;4.78;4.40;;;33.30;8.80;;;;;;4993649;28;20136;-67
2021/03/20 13:18:54;;;;;;;6.43;5.63;;;32.80;10.00;;;;;;4976716;28;20030;-66
2021/03/20 13:21:21;;;;;;;6.70;5.10;;;32.70;9.70;;;;;;4981611;28;20112;-64
2021/03/20 13:23:47;;;;;;;5.43;5.00;;;32.30;9.20;;;;;;5007274;28;20038;-64
2021/03/20 13:26:13;;;;;;;5.47;4.97;;;32.80;9.60;;;;;;4995486;28;20062;-64
2021/03/20 13:28:39;;;;;;;6.30;5.25;;;33.20;9.20;;;;;;5007005;28;20499;-64